^^
Meteo Knjazevac Station Historical Data
Daily Summary for September 5, 2021 Units:  Both    English   Metric
Daily Weekly Monthly Yearly Custom
  High: Low: Average:
Temperature: 91.4 °F /  33 °C 61 °F /  16.1 °C 72.7 °F /  22.6 °C
Dew Point: 70.9 °F /  21.6 °C 56.1 °F /  13.4 °C 62 °F /  16.7 °C
Humidity: 85% 48% 71%
Wind Speed: 9mph /  14.5km/h - 1.9mph /  3.1km/h
Wind Gust: 13mph /  20.9km/h - -
Wind- - South
Pressure: 30.00 in /  1015.8 hPa 29.77 in /  1008 hPa -
Precipitation: 0.00 in /  0 mm    
Historical Graphs
 
 
Tabular Data for September 5, 2021
Time Temperature Dew Point Pressure Wind Wind Speed Wind Gust Humidity Rainfall Rate (Hourly) solar Conditions
00:00 68.7 °F /  20.4 °C 59.7 °F /  15.4 °C 30.00in /  1015.8hPa NNW 1mph /  1.6km/h 2mph /  3.2km/h 73% 0.00in /  0mm 0 W/m2
00:10 68.5 °F /  20.3 °C 59.9 °F /  15.5 °C 30.00in /  1015.8hPa WNW 1mph /  1.6km/h 3mph /  4.8km/h 74% 0.00in /  0mm 0 W/m2
00:20 67.8 °F /  19.9 °C 59.2 °F /  15.1 °C 30.00in /  1015.8hPa WSW 2mph /  3.2km/h 3mph /  4.8km/h 74% 0.00in /  0mm 0 W/m2
00:30 67.5 °F /  19.7 °C 58.5 °F /  14.7 °C 30.00in /  1015.8hPa West 1mph /  1.6km/h 3mph /  4.8km/h 73% 0.00in /  0mm 0 W/m2
00:40 67.1 °F /  19.5 °C 58.5 °F /  14.7 °C 29.99in /  1015.5hPa WNW 1mph /  1.6km/h 2mph /  3.2km/h 74% 0.00in /  0mm 0 W/m2
00:50 67.1 °F /  19.5 °C 58.5 °F /  14.7 °C 29.99in /  1015.5hPa West 1mph /  1.6km/h 2mph /  3.2km/h 74% 0.00in /  0mm 0 W/m2
01:00 66.9 °F /  19.4 °C 59.5 °F /  15.3 °C 29.99in /  1015.5hPa Calm   2mph /  3.2km/h 77% 0.00in /  0mm 0 W/m2
01:10 66.7 °F /  19.3 °C 58.6 °F /  14.8 °C 29.99in /  1015.5hPa West 1mph /  1.6km/h 3mph /  4.8km/h 75% 0.00in /  0mm 0 W/m2
01:20 66.4 °F /  19.1 °C 58.9 °F /  14.9 °C 29.99in /  1015.5hPa Calm   2mph /  3.2km/h 77% 0.00in /  0mm 0 W/m2
01:30 66 °F /  18.9 °C 58.6 °F /  14.8 °C 29.99in /  1015.5hPa Calm   2mph /  3.2km/h 77% 0.00in /  0mm 0 W/m2
01:40 65.8 °F /  18.8 °C 58.4 °F /  14.7 °C 29.99in /  1015.5hPa NNW 1mph /  1.6km/h 3mph /  4.8km/h 77% 0.00in /  0mm 0 W/m2
01:50 65.8 °F /  18.8 °C 58.7 °F /  14.8 °C 29.99in /  1015.5hPa Calm   2mph /  3.2km/h 78% 0.00in /  0mm 0 W/m2
02:00 65.5 °F /  18.6 °C 58.4 °F /  14.7 °C 29.99in /  1015.5hPa NNW 1mph /  1.6km/h 2mph /  3.2km/h 78% 0.00in /  0mm 0 W/m2
02:10 65.1 °F /  18.4 °C 58.4 °F /  14.7 °C 29.99in /  1015.5hPa Calm   2mph /  3.2km/h 79% 0.00in /  0mm 0 W/m2
02:20 64.6 °F /  18.1 °C 57.9 °F /  14.4 °C 29.98in /  1015.1hPa Calm   2mph /  3.2km/h 79% 0.00in /  0mm 0 W/m2
02:30 64.2 °F /  17.9 °C 57.9 °F /  14.4 °C 29.98in /  1015.1hPa Calm   2mph /  3.2km/h 80% 0.00in /  0mm 0 W/m2
02:40 64 °F /  17.8 °C 57.7 °F /  14.3 °C 29.98in /  1015.1hPa WNW 1mph /  1.6km/h 2mph /  3.2km/h 80% 0.00in /  0mm 0 W/m2
02:50 63.6 °F /  17.6 °C 57.3 °F /  14.1 °C 29.98in /  1015.1hPa WSW 1mph /  1.6km/h 2mph /  3.2km/h 80% 0.00in /  0mm 0 W/m2
03:00 63.1 °F /  17.3 °C 56.9 °F /  13.8 °C 29.98in /  1015.1hPa WSW 1mph /  1.6km/h 2mph /  3.2km/h 80% 0.00in /  0mm 0 W/m2
03:10 62.8 °F /  17.1 °C 56.5 °F /  13.6 °C 29.98in /  1015.1hPa WNW 1mph /  1.6km/h 4mph /  6.4km/h 80% 0.00in /  0mm 0 W/m2
03:20 62.8 °F /  17.1 °C 56.5 °F /  13.6 °C 29.97in /  1014.8hPa WNW 1mph /  1.6km/h 3mph /  4.8km/h 80% 0.00in /  0mm 0 W/m2
03:30 62.6 °F /  17 °C 56.3 °F /  13.5 °C 29.97in /  1014.8hPa West 3mph /  4.8km/h 4mph /  6.4km/h 80% 0.00in /  0mm 0 W/m2
03:40 62.4 °F /  16.9 °C 56.2 °F /  13.4 °C 29.97in /  1014.8hPa Calm   4mph /  6.4km/h 80% 0.00in /  0mm 0 W/m2
03:50 62.2 °F /  16.8 °C 56.3 °F /  13.5 °C 29.97in /  1014.8hPa West 1mph /  1.6km/h 2mph /  3.2km/h 81% 0.00in /  0mm 0 W/m2
04:00 61.9 °F /  16.6 °C 56.7 °F /  13.7 °C 29.97in /  1014.8hPa WNW 1mph /  1.6km/h 2mph /  3.2km/h 83% 0.00in /  0mm 0 W/m2
04:10 61.6 °F /  16.4 °C 56.4 °F /  13.6 °C 29.96in /  1014.4hPa Calm   2mph /  3.2km/h 83% 0.00in /  0mm 0 W/m2
04:20 61.3 °F /  16.3 °C 56.1 °F /  13.4 °C 29.96in /  1014.4hPa Calm   1mph /  1.6km/h 83% 0.00in /  0mm 0 W/m2
04:30 61.3 °F /  16.3 °C 56.5 °F /  13.6 °C 29.96in /  1014.4hPa Calm   2mph /  3.2km/h 84% 0.00in /  0mm 0 W/m2
04:40 61.2 °F /  16.2 °C 56.3 °F /  13.5 °C 29.96in /  1014.4hPa WNW 1mph /  1.6km/h 2mph /  3.2km/h 84% 0.00in /  0mm 0 W/m2
04:50 61.2 °F /  16.2 °C 56.3 °F /  13.5 °C 29.96in /  1014.4hPa WNW 1mph /  1.6km/h 2mph /  3.2km/h 84% 0.00in /  0mm 0 W/m2
05:00 61 °F /  16.1 °C 56.1 °F /  13.4 °C 29.96in /  1014.4hPa Calm   4mph /  6.4km/h 84% 0.00in /  0mm 0 W/m2
05:10 61 °F /  16.1 °C 56.1 °F /  13.4 °C 29.96in /  1014.4hPa Calm   2mph /  3.2km/h 84% 0.00in /  0mm 0 W/m2
05:20 61 °F /  16.1 °C 56.1 °F /  13.4 °C 29.96in /  1014.4hPa Calm   2mph /  3.2km/h 84% 0.00in /  0mm 0 W/m2
05:30 61 °F /  16.1 °C 56.4 °F /  13.6 °C 29.96in /  1014.4hPa Calm   2mph /  3.2km/h 85% 0.00in /  0mm 4 W/m2
05:40 61 °F /  16.1 °C 56.4 °F /  13.6 °C 29.96in /  1014.4hPa Calm   2mph /  3.2km/h 85% 0.00in /  0mm 7 W/m2
05:50 61.2 °F /  16.2 °C 56.6 °F /  13.7 °C 29.95in /  1014.1hPa North 1mph /  1.6km/h 2mph /  3.2km/h 85% 0.00in /  0mm 13 W/m2
06:00 61.3 °F /  16.3 °C 56.8 °F /  13.8 °C 29.95in /  1014.1hPa NNE 1mph /  1.6km/h 3mph /  4.8km/h 85% 0.00in /  0mm 22 W/m2
06:10 61.6 °F /  16.4 °C 57 °F /  13.9 °C 29.95in /  1014.1hPa North 1mph /  1.6km/h 2mph /  3.2km/h 85% 0.00in /  0mm 30 W/m2
06:20 61.5 °F /  16.4 °C 57 °F /  13.9 °C 29.95in /  1014.1hPa West 1mph /  1.6km/h 2mph /  3.2km/h 85% 0.00in /  0mm 38 W/m2
06:30 61.7 °F /  16.5 °C 57.1 °F /  13.9 °C 29.95in /  1014.1hPa North 1mph /  1.6km/h 2mph /  3.2km/h 85% 0.00in /  0mm 48 W/m2
06:40 61.9 °F /  16.6 °C 57 °F /  13.9 °C 29.95in /  1014.1hPa Calm   2mph /  3.2km/h 84% 0.00in /  0mm 87 W/m2
06:50 62 °F /  16.7 °C 57.1 °F /  13.9 °C 29.95in /  1014.1hPa WNW 1mph /  1.6km/h 2mph /  3.2km/h 84% 0.00in /  0mm 100 W/m2
07:00 62.2 °F /  16.8 °C 57.3 °F /  14.1 °C 29.94in /  1013.8hPa Calm   2mph /  3.2km/h 84% 0.00in /  0mm 147 W/m2
07:10 62.4 °F /  16.9 °C 57.5 °F /  14.2 °C 29.95in /  1014.1hPa NNW 1mph /  1.6km/h 2mph /  3.2km/h 84% 0.00in /  0mm 188 W/m2
07:20 63 °F /  17.2 °C 58.4 °F /  14.7 °C 29.94in /  1013.8hPa NNE 1mph /  1.6km/h 4mph /  6.4km/h 85% 0.00in /  0mm 221 W/m2
07:30 63.6 °F /  17.6 °C 58.7 °F /  14.8 °C 29.94in /  1013.8hPa NNE 3mph /  4.8km/h 5mph /  8km/h 84% 0.00in /  0mm 256 W/m2
07:40 64 °F /  17.8 °C 58.8 °F /  14.9 °C 29.94in /  1013.8hPa Calm   3mph /  4.8km/h 83% 0.00in /  0mm 284 W/m2
07:50 64.5 °F /  18.1 °C 58.5 °F /  14.7 °C 29.93in /  1013.4hPa NE 1mph /  1.6km/h 4mph /  6.4km/h 81% 0.00in /  0mm 319 W/m2
08:00 65.1 °F /  18.4 °C 59.5 °F /  15.3 °C 29.93in /  1013.4hPa Calm   2mph /  3.2km/h 82% 0.00in /  0mm 371 W/m2
08:10 65.8 °F /  18.8 °C 59.5 °F /  15.3 °C 29.93in /  1013.4hPa WNW 1mph /  1.6km/h 4mph /  6.4km/h 80% 0.00in /  0mm 414 W/m2
08:20 66.6 °F /  19.2 °C 59.9 °F /  15.5 °C 29.93in /  1013.4hPa North 1mph /  1.6km/h 4mph /  6.4km/h 79% 0.00in /  0mm 414 W/m2
08:30 67.4 °F /  19.7 °C 60.3 °F /  15.7 °C 29.93in /  1013.4hPa Calm   6mph /  9.7km/h 78% 0.00in /  0mm 459 W/m2
08:40 68.2 °F /  20.1 °C 61.1 °F /  16.2 °C 29.92in /  1013.1hPa East 1mph /  1.6km/h 4mph /  6.4km/h 78% 0.00in /  0mm 494 W/m2
08:50 69.2 °F /  20.7 °C 61.7 °F /  16.5 °C 29.92in /  1013.1hPa SW 2mph /  3.2km/h 3mph /  4.8km/h 77% 0.00in /  0mm 526 W/m2
09:00 70.2 °F /  21.2 °C 61.9 °F /  16.6 °C 29.91in /  1012.8hPa WSW 1mph /  1.6km/h 3mph /  4.8km/h 75% 0.00in /  0mm 559 W/m2
09:10 72.2 °F /  22.3 °C 63.1 °F /  17.3 °C 29.91in /  1012.8hPa Calm   3mph /  4.8km/h 73% 0.00in /  0mm 593 W/m2
09:20 73.9 °F /  23.3 °C 64.3 °F /  17.9 °C 29.90in /  1012.4hPa WSW 1mph /  1.6km/h 2mph /  3.2km/h 72% 0.00in /  0mm 624 W/m2
09:30 75.7 °F /  24.3 °C 65.3 °F /  18.5 °C 29.90in /  1012.4hPa South 1mph /  1.6km/h 3mph /  4.8km/h 70% 0.00in /  0mm 642 W/m2
09:40 76.8 °F /  24.9 °C 65.5 °F /  18.6 °C 29.89in /  1012.1hPa West 1mph /  1.6km/h 5mph /  8km/h 68% 0.00in /  0mm 679 W/m2
09:50 78.2 °F /  25.7 °C 66.3 °F /  19.1 °C 29.89in /  1012.1hPa West 5mph /  8km/h 6mph /  9.7km/h 67% 0.00in /  0mm 716 W/m2
10:00 79.8 °F /  26.6 °C 67.4 °F /  19.7 °C 29.89in /  1012.1hPa WNW 2mph /  3.2km/h 5mph /  8km/h 66% 0.00in /  0mm 745 W/m2
10:10 81.2 °F /  27.3 °C 67.9 °F /  19.9 °C 29.88in /  1011.7hPa WNW 1mph /  1.6km/h 5mph /  8km/h 64% 0.00in /  0mm 766 W/m2
10:20 82.7 °F /  28.2 °C 68.8 °F /  20.4 °C 29.88in /  1011.7hPa West 2mph /  3.2km/h 5mph /  8km/h 63% 0.00in /  0mm 787 W/m2
10:30 84 °F /  28.9 °C 69.1 °F /  20.6 °C 29.88in /  1011.7hPa WSW 2mph /  3.2km/h 3mph /  4.8km/h 61% 0.00in /  0mm 806 W/m2
10:40 86.5 °F /  30.3 °C 70.9 °F /  21.6 °C 29.87in /  1011.4hPa NW 2mph /  3.2km/h 5mph /  8km/h 60% 0.00in /  0mm 824 W/m2
10:50 88.5 °F /  31.4 °C 69.2 °F /  20.7 °C 29.87in /  1011.4hPa SE 7mph /  11.3km/h 10mph /  16.1km/h 53% 0.00in /  0mm 630 W/m2
11:00 90 °F /  32.2 °C 68.2 °F /  20.1 °C 29.86in /  1011.1hPa SE 7mph /  11.3km/h 12mph /  19.3km/h 49% 0.00in /  0mm 855 W/m2
11:10 91 °F /  32.8 °C 68.5 °F /  20.3 °C 29.85in /  1010.7hPa SE 7mph /  11.3km/h 13mph /  20.9km/h 48% 0.00in /  0mm 849 W/m2
11:20 91.4 °F /  33 °C 69 °F /  20.6 °C 29.85in /  1010.7hPa SE 6mph /  9.7km/h 13mph /  20.9km/h 48% 0.00in /  0mm 498 W/m2
11:30 91.1 °F /  32.8 °C 69.3 °F /  20.7 °C 29.85in /  1010.7hPa ESE 5mph /  8km/h 13mph /  20.9km/h 49% 0.00in /  0mm 404 W/m2
11:40 91 °F /  32.8 °C 69.2 °F /  20.7 °C 29.85in /  1010.7hPa SE 5mph /  8km/h 8mph /  12.9km/h 49% 0.00in /  0mm 382 W/m2
11:50 91 °F /  32.8 °C 69.8 °F /  21 °C 29.85in /  1010.7hPa SSE 2mph /  3.2km/h 7mph /  11.3km/h 50% 0.00in /  0mm 442 W/m2
12:00 91.2 °F /  32.9 °C 70 °F /  21.1 °C 29.85in /  1010.7hPa SE 2mph /  3.2km/h 5mph /  8km/h 50% 0.00in /  0mm 457 W/m2
12:10 91 °F /  32.8 °C 68.6 °F /  20.3 °C 29.84in /  1010.4hPa SSE 6mph /  9.7km/h 9mph /  14.5km/h 48% 0.00in /  0mm 258 W/m2
12:20 90.8 °F /  32.7 °C 69.6 °F /  20.9 °C 29.84in /  1010.4hPa ESE 5mph /  8km/h 8mph /  12.9km/h 50% 0.00in /  0mm 210 W/m2
12:30 90.5 °F /  32.5 °C 69.3 °F /  20.7 °C 29.83in /  1010hPa ESE 5mph /  8km/h 7mph /  11.3km/h 50% 0.00in /  0mm 225 W/m2
12:40 90.3 °F /  32.4 °C 68.6 °F /  20.3 °C 29.83in /  1010hPa ESE 3mph /  4.8km/h 8mph /  12.9km/h 49% 0.00in /  0mm 210 W/m2
12:50 90 °F /  32.2 °C 68.2 °F /  20.1 °C 29.83in /  1010hPa ENE 3mph /  4.8km/h 7mph /  11.3km/h 49% 0.00in /  0mm 160 W/m2
13:00 88.9 °F /  31.6 °C 67.8 °F /  19.9 °C 29.82in /  1009.7hPa NNE 8mph /  12.9km/h 13mph /  20.9km/h 50% 0.00in /  0mm 141 W/m2
13:10 87.5 °F /  30.8 °C 68.3 °F /  20.2 °C 29.83in /  1010hPa NNE 5mph /  8km/h 12mph /  19.3km/h 53% 0.00in /  0mm 107 W/m2
13:20 86.2 °F /  30.1 °C 67 °F /  19.4 °C 29.82in /  1009.7hPa NNE 7mph /  11.3km/h 13mph /  20.9km/h 53% 0.00in /  0mm 87 W/m2
13:30 85.3 °F /  29.6 °C 66.8 °F /  19.3 °C 29.82in /  1009.7hPa NNE 9mph /  14.5km/h 13mph /  20.9km/h 54% 0.00in /  0mm 131 W/m2
13:40 84.7 °F /  29.3 °C 67.8 °F /  19.9 °C 29.81in /  1009.4hPa NNE 2mph /  3.2km/h 10mph /  16.1km/h 57% 0.00in /  0mm 149 W/m2
13:50 84.1 °F /  28.9 °C 66.2 °F /  19 °C 29.81in /  1009.4hPa NNE 7mph /  11.3km/h 13mph /  20.9km/h 55% 0.00in /  0mm 148 W/m2
14:00 83.8 °F /  28.8 °C 67.5 °F /  19.7 °C 29.81in /  1009.4hPa North 5mph /  8km/h 8mph /  12.9km/h 58% 0.00in /  0mm 272 W/m2
14:10 84 °F /  28.9 °C 67.7 °F /  19.8 °C 29.81in /  1009.4hPa North 3mph /  4.8km/h 5mph /  8km/h 58% 0.00in /  0mm 311 W/m2
14:20 84.2 °F /  29 °C 68.3 °F /  20.2 °C 29.81in /  1009.4hPa NE 2mph /  3.2km/h 6mph /  9.7km/h 59% 0.00in /  0mm 437 W/m2
14:30 84.6 °F /  29.2 °C 68.2 °F /  20.1 °C 29.80in /  1009hPa NE 1mph /  1.6km/h 7mph /  11.3km/h 58% 0.00in /  0mm 517 W/m2
14:40 85 °F /  29.4 °C 68.1 °F /  20.1 °C 29.79in /  1008.7hPa NNE 2mph /  3.2km/h 5mph /  8km/h 57% 0.00in /  0mm 369 W/m2
14:50 85.3 °F /  29.6 °C 68.3 °F /  20.2 °C 29.79in /  1008.7hPa NNW 1mph /  1.6km/h 4mph /  6.4km/h 57% 0.00in /  0mm 439 W/m2
15:00 85.9 °F /  29.9 °C 68.9 °F /  20.5 °C 29.78in /  1008.4hPa East 1mph /  1.6km/h 3mph /  4.8km/h 57% 0.00in /  0mm 390 W/m2
15:10 86.4 °F /  30.2 °C 69.3 °F /  20.7 °C 29.77in /  1008hPa SW 3mph /  4.8km/h 5mph /  8km/h 57% 0.00in /  0mm 324 W/m2
Knjazevac, Serbia
Compliments of Weather Underground - 2 mb